createdAt,value
2022-08-02T00:01:08.083Z,98233.78
2022-08-02T00:03:37.293Z,98234.44
2022-08-02T00:06:07.007Z,98233.56
2022-08-02T00:08:36.264Z,98231.19
2022-08-02T00:11:05.555Z,98233.66
2022-08-02T00:13:34.761Z,98227.19
2022-08-02T00:16:04.219Z,98228.25
2022-08-02T00:18:35.011Z,98228.38
2022-08-02T00:21:04.291Z,98237.75
2022-08-02T00:23:33.817Z,98232.22
2022-08-02T00:26:22.972Z,98236.16
2022-08-02T00:28:52.262Z,98237.25
2022-08-02T00:31:21.643Z,98235.25
2022-08-02T00:34:27.735Z,98247.16
2022-08-02T00:36:41.405Z,98245.97
2022-08-02T00:39:34.712Z,98254.34
2022-08-02T00:42:00.142Z,98256.28
2022-08-02T00:44:29.267Z,98263.63
2022-08-02T00:46:58.622Z,98274.47
2022-08-02T00:49:29.388Z,98274.75
2022-08-02T00:51:58.625Z,98280.91
2022-08-02T00:54:27.909Z,98274.25
2022-08-02T00:56:57.166Z,98273.19
2022-08-02T00:59:26.437Z,98276.09
2022-08-02T01:01:58.278Z,98282.72
2022-08-02T01:04:31.584Z,98276.25
2022-08-02T01:07:13.621Z,98282.19
2022-08-02T01:09:43.690Z,98271.44
2022-08-02T01:12:14.361Z,98277.47
2022-08-02T01:14:47.567Z,98279.94
2022-08-02T01:17:30.238Z,98275.84
2022-08-02T01:20:19.341Z,98273.31
2022-08-02T01:23:10.817Z,98272.03
2022-08-02T01:26:04.266Z,98270.44
2022-08-02T01:28:41.872Z,98271.75
2022-08-02T01:31:20.299Z,98266.38
2022-08-02T01:33:58.159Z,98279.69
2022-08-02T01:36:39.338Z,98299.94
2022-08-02T01:39:26.277Z,98282.78
2022-08-02T01:41:59.215Z,98285.63
2022-08-02T01:44:34.454Z,98274.44
2022-08-02T01:47:07.515Z,98271.44
2022-08-02T01:49:41.063Z,98264.78
2022-08-02T01:52:24.922Z,98268.97
2022-08-02T01:55:02.791Z,98279.06
2022-08-02T01:57:41.889Z,98264.53
2022-08-02T02:00:14.812Z,98255.03
2022-08-02T02:02:47.515Z,98261.66
2022-08-02T02:05:20.531Z,98266.25
2022-08-02T02:07:53.484Z,98268.63
2022-08-02T02:10:28.271Z,98268.59
2022-08-02T02:13:04.297Z,98270.47
2022-08-02T02:15:37.080Z,98273.19
2022-08-02T02:18:13.876Z,98275.22
2022-08-02T02:20:44.541Z,98276.16
2022-08-02T02:23:15.094Z,98272.06
2022-08-02T02:25:47.927Z,98282.22
2022-08-02T02:28:24.348Z,98278.09
2022-08-02T02:31:01.834Z,98282.53
2022-08-02T02:33:31.952Z,98285.09
2022-08-02T02:36:03.994Z,98287.28
2022-08-02T02:38:35.349Z,98280.63
2022-08-02T02:41:06.858Z,98290.13
2022-08-02T02:43:39.205Z,98288.56
2022-08-02T02:46:11.365Z,98281.28
2022-08-02T02:48:42.265Z,98288.56
2022-08-02T02:51:13.811Z,98291.88
2022-08-02T02:54:33.645Z,98291.06
2022-08-02T02:56:38.193Z,98288.41
2022-08-02T02:59:09.726Z,98292.38
2022-08-02T03:01:57.335Z,98285.69
2022-08-02T03:04:56.226Z,98284.63
2022-08-02T03:07:19.359Z,98283.03
2022-08-02T03:09:54.214Z,98286.66
2022-08-02T03:12:31.546Z,98280.81
2022-08-02T03:15:02.399Z,98282.25
2022-08-02T03:17:45.063Z,98284.75
2022-08-02T03:20:17.792Z,98287.94
2022-08-02T03:22:48.178Z,98284.44
2022-08-02T03:25:20.511Z,98280.34
2022-08-02T03:27:49.886Z,98282.53
2022-08-02T03:30:20.070Z,98285.38
2022-08-02T03:32:51.204Z,98283.50
2022-08-02T03:35:24.469Z,98279.22
2022-08-02T03:37:55.356Z,98278.44
2022-08-02T03:40:26.413Z,98280.34
2022-08-02T03:42:56.663Z,98280.63
2022-08-02T03:45:26.979Z,98285.03
2022-08-02T03:47:59.101Z,98276.16
2022-08-02T03:50:28.932Z,98278.38
2022-08-02T03:52:59.153Z,98278.00
2022-08-02T03:55:28.405Z,98283.41
2022-08-02T03:57:57.838Z,98284.38
2022-08-02T04:00:27.055Z,98279.00
2022-08-02T04:02:57.815Z,98281.38
2022-08-02T04:05:27.978Z,98286.28
2022-08-02T04:08:02.424Z,98287.69
2022-08-02T04:11:04.294Z,98288.81
2022-08-02T04:13:37.186Z,98302.28
2022-08-02T04:16:13.930Z,98297.38
2022-08-02T04:18:52.351Z,98305.91
2022-08-02T04:21:25.692Z,98314.13
2022-08-02T04:23:57.133Z,98309.75
2022-08-02T04:26:28.495Z,98313.38
2022-08-02T04:28:59.815Z,98321.47
2022-08-02T04:31:30.009Z,98324.97
2022-08-02T04:34:01.477Z,98335.41
2022-08-02T04:36:32.039Z,98340.47
2022-08-02T04:39:06.483Z,98338.91
2022-08-02T04:41:44.265Z,98343.66
2022-08-02T04:44:14.315Z,98342.56
2022-08-02T04:46:46.576Z,98352.22
2022-08-02T04:49:17.561Z,98344.59
2022-08-02T04:51:47.068Z,98356.00
2022-08-02T04:54:16.466Z,98360.00
2022-08-02T04:56:45.693Z,98364.59
2022-08-02T04:59:15.018Z,98354.00
2022-08-02T05:01:44.522Z,98362.38
2022-08-02T05:04:16.342Z,98354.44
2022-08-02T05:06:46.621Z,98351.91
2022-08-02T05:09:15.935Z,98362.69
2022-08-02T05:11:45.395Z,98357.75
2022-08-02T05:14:24.403Z,98355.38
2022-08-02T05:16:54.663Z,98359.81
2022-08-02T05:19:25.318Z,98356.31
2022-08-02T05:21:54.560Z,98349.00
2022-08-02T05:24:23.807Z,98360.41
2022-08-02T05:26:53.001Z,98353.25
2022-08-02T05:29:23.257Z,98364.09
2022-08-02T05:31:52.628Z,98365.91
2022-08-02T05:34:22.111Z,98374.69
2022-08-02T05:36:52.715Z,98367.28
2022-08-02T05:39:21.964Z,98368.19
2022-08-02T05:41:52.401Z,98366.81
2022-08-02T05:44:22.104Z,98374.97
2022-08-02T05:46:51.400Z,98379.31
2022-08-02T05:49:20.837Z,98376.75
2022-08-02T05:52:05.487Z,98374.81
2022-08-02T05:54:47.114Z,98381.94
2022-08-02T05:57:27.568Z,98379.56
2022-08-02T06:00:09.382Z,98377.97
2022-08-02T06:03:17.935Z,98374.81
2022-08-02T06:06:00.058Z,98382.91
2022-08-02T06:08:43.475Z,98387.44
2022-08-02T06:11:22.564Z,98391.81
2022-08-02T06:13:54.605Z,98384.13
2022-08-02T06:16:32.511Z,98396.41
2022-08-02T06:19:04.107Z,98393.94
2022-08-02T06:22:32.329Z,98390.47
2022-08-02T06:24:34.835Z,98403.91
2022-08-02T06:27:04.732Z,98396.66
2022-08-02T06:29:38.877Z,98399.75
2022-08-02T06:32:09.965Z,98408.19
2022-08-02T06:34:40.002Z,98415.84
2022-08-02T06:37:17.760Z,98409.50
2022-08-02T06:39:50.961Z,98425.50
2022-08-02T06:42:27.726Z,98424.06
2022-08-02T06:44:58.811Z,98425.13
2022-08-02T06:47:28.256Z,98431.13
2022-08-02T06:49:58.456Z,98422.84
2022-08-02T06:52:31.236Z,98431.84
2022-08-02T06:55:05.416Z,98433.81
2022-08-02T06:57:35.559Z,98432.97
2022-08-02T07:00:09.179Z,98429.78
2022-08-02T07:02:39.858Z,98433.38
2022-08-02T07:05:10.492Z,98437.72
2022-08-02T07:07:39.787Z,98436.16
2022-08-02T07:10:11.124Z,98437.41
2022-08-02T07:12:40.901Z,98428.50
2022-08-02T07:15:12.683Z,98436.91
2022-08-02T07:17:41.962Z,98440.41
2022-08-02T07:20:11.792Z,98439.69
2022-08-02T07:22:40.990Z,98435.88
2022-08-02T07:25:13.276Z,98444.78
2022-08-02T07:27:42.852Z,98443.78
2022-08-02T07:30:13.452Z,98441.63
2022-08-02T07:32:42.734Z,98442.66
2022-08-02T07:35:14.482Z,98442.19
2022-08-02T07:37:55.388Z,98444.44
2022-08-02T07:40:30.659Z,98449.28
2022-08-02T07:43:03.915Z,98441.59
2022-08-02T07:45:36.107Z,98446.94
2022-08-02T07:48:14.879Z,98447.31
2022-08-02T07:50:44.114Z,98451.88
2022-08-02T07:53:13.316Z,98458.81
2022-08-02T07:55:44.071Z,98448.41
2022-08-02T07:58:13.826Z,98450.81
2022-08-02T08:00:44.546Z,98448.22
2022-08-02T08:03:14.304Z,98445.88
2022-08-02T08:05:43.928Z,98446.47
2022-08-02T08:08:17.319Z,98448.81
2022-08-02T08:10:49.006Z,98442.28
2022-08-02T08:13:18.247Z,98443.84
2022-08-02T08:15:51.585Z,98445.41
2022-08-02T08:18:22.621Z,98452.75
2022-08-02T08:20:52.229Z,98453.81
2022-08-02T08:23:21.494Z,98452.72
2022-08-02T08:25:52.390Z,98442.22
2022-08-02T08:28:21.656Z,98457.41
2022-08-02T08:30:51.235Z,98459.97
2022-08-02T08:33:20.564Z,98463.13
2022-08-02T08:36:02.590Z,98469.13
2022-08-02T08:38:32.221Z,98463.28
2022-08-02T08:41:02.970Z,98472.38
2022-08-02T08:43:32.761Z,98464.38
2022-08-02T08:46:01.999Z,98475.03
2022-08-02T08:48:34.413Z,98481.75
2022-08-02T08:51:18.513Z,98484.31
2022-08-02T08:53:50.561Z,98489.47
2022-08-02T08:56:22.558Z,98492.78
2022-08-02T08:58:51.907Z,98491.91
2022-08-02T09:01:21.715Z,98495.19
2022-08-02T09:03:51.107Z,98494.66
2022-08-02T09:06:20.887Z,98489.88
2022-08-02T09:08:50.217Z,98486.03
2022-08-02T09:11:26.374Z,98505.41
2022-08-02T09:13:58.778Z,98488.13
2022-08-02T09:16:37.102Z,98502.13
2022-08-02T09:19:21.341Z,98499.44
2022-08-02T09:21:52.151Z,98501.94
2022-08-02T09:24:23.632Z,98501.00
2022-08-02T09:26:54.374Z,98498.81
2022-08-02T09:29:25.611Z,98495.78
2022-08-02T09:32:04.690Z,98502.34
2022-08-02T09:34:50.805Z,98502.28
2022-08-02T09:37:25.521Z,98503.47
2022-08-02T09:39:58.399Z,98499.31
2022-08-02T09:42:30.945Z,98496.13
2022-08-02T09:45:02.620Z,98502.97
2022-08-02T09:47:37.360Z,98499.06
2022-08-02T09:50:14.624Z,98494.69
2022-08-02T09:52:45.256Z,98497.16
2022-08-02T09:55:14.523Z,98490.06
2022-08-02T09:57:50.988Z,98491.91
2022-08-02T10:00:37.233Z,98490.06
2022-08-02T10:03:16.706Z,98484.38
2022-08-02T10:05:56.059Z,98491.75
2022-08-02T10:08:33.425Z,98485.09
2022-08-02T10:11:03.948Z,98484.72
2022-08-02T10:13:37.440Z,98479.50
2022-08-02T10:16:08.332Z,98477.72
2022-08-02T10:18:39.798Z,98478.91
2022-08-02T10:21:16.291Z,98478.78
2022-08-02T10:23:48.509Z,98490.34
2022-08-02T10:26:20.836Z,98476.38
2022-08-02T10:28:55.400Z,98475.75
2022-08-02T10:31:31.441Z,98481.63
2022-08-02T10:34:04.419Z,98471.53
2022-08-02T10:36:36.833Z,98472.47
2022-08-02T10:39:06.402Z,98464.81
2022-08-02T10:41:47.954Z,98470.72
2022-08-02T10:44:28.278Z,98473.47
2022-08-02T10:47:26.233Z,98468.84
2022-08-02T10:49:57.766Z,98474.81
2022-08-02T10:52:28.985Z,98471.56
2022-08-02T10:55:01.212Z,98472.28
2022-08-02T10:57:35.369Z,98470.88
2022-08-02T11:00:13.966Z,98475.53
2022-08-02T11:02:53.223Z,98470.19
2022-08-02T11:05:42.885Z,98472.28
2022-08-02T11:08:21.646Z,98474.94
2022-08-02T11:10:50.938Z,98481.94
2022-08-02T11:13:20.702Z,98474.34
2022-08-02T11:16:10.797Z,98467.03
2022-08-02T11:19:07.240Z,98467.13
2022-08-02T11:21:37.586Z,98469.25
2022-08-02T11:24:31.183Z,98472.69
2022-08-02T11:27:02.095Z,98468.84
2022-08-02T11:29:39.286Z,98465.75
2022-08-02T11:32:18.065Z,98469.25
2022-08-02T11:34:49.441Z,98478.09
2022-08-02T11:37:30.242Z,98475.38
2022-08-02T11:39:59.765Z,98479.28
2022-08-02T11:42:33.989Z,98465.63
2022-08-02T11:45:04.007Z,98454.44
2022-08-02T11:47:35.042Z,98451.84
2022-08-02T11:50:08.827Z,98454.97
2022-08-02T11:52:39.439Z,98447.50
2022-08-02T11:55:11.416Z,98453.34
2022-08-02T11:58:03.472Z,98449.38
2022-08-02T12:00:31.088Z,98449.22
2022-08-02T12:03:01.882Z,98446.59
2022-08-02T12:06:05.684Z,98436.16
2022-08-02T12:08:25.154Z,98437.91
2022-08-02T12:10:54.896Z,98444.78
2022-08-02T12:13:24.180Z,98441.50
2022-08-02T12:15:53.515Z,98444.50
2022-08-02T12:18:42.290Z,98443.84
2022-08-02T12:21:24.071Z,98438.84
2022-08-02T12:24:00.601Z,98447.91
2022-08-02T12:26:31.067Z,98448.00
2022-08-02T12:29:02.522Z,98440.59
2022-08-02T12:31:56.912Z,98441.22
2022-08-02T12:34:32.580Z,98439.66
2022-08-02T12:37:05.179Z,98439.47
2022-08-02T12:39:41.802Z,98443.75
2022-08-02T12:42:16.308Z,98444.16
2022-08-02T12:44:54.622Z,98455.06
2022-08-02T12:47:24.177Z,98440.28
2022-08-02T12:50:17.039Z,98447.25
2022-08-02T12:52:47.145Z,98455.72
2022-08-02T12:55:20.004Z,98458.53
2022-08-02T12:57:59.064Z,98452.97
2022-08-02T13:00:31.483Z,98453.22
2022-08-02T13:03:01.993Z,98458.38
2022-08-02T13:05:53.613Z,98447.78
2022-08-02T13:08:25.317Z,98453.25
2022-08-02T13:10:54.482Z,98447.47
2022-08-02T13:13:23.766Z,98438.25
2022-08-02T13:15:53.088Z,98441.91
2022-08-02T13:18:22.998Z,98446.16
2022-08-02T13:20:53.794Z,98447.03
2022-08-02T13:23:24.565Z,98441.53
2022-08-02T13:26:13.812Z,98435.09
2022-08-02T13:28:43.181Z,98429.44
2022-08-02T13:31:35.297Z,98416.25
2022-08-02T13:34:02.812Z,98408.16
2022-08-02T13:36:34.542Z,98410.31
2022-08-02T13:39:09.302Z,98404.84
2022-08-02T13:41:39.246Z,98398.38
2022-08-02T13:44:11.110Z,98405.09
2022-08-02T13:46:45.603Z,98395.13
2022-08-02T13:49:19.279Z,98407.53
2022-08-02T13:51:50.674Z,98394.88
2022-08-02T13:54:19.832Z,98394.44
2022-08-02T13:56:49.350Z,98405.78
2022-08-02T13:59:53.906Z,98395.78
2022-08-02T14:02:08.451Z,98411.63
2022-08-02T14:04:39.094Z,98397.91
2022-08-02T14:07:09.808Z,98394.56
2022-08-02T14:09:39.091Z,98396.84
2022-08-02T14:12:11.185Z,98398.38
2022-08-02T14:14:40.889Z,98383.44
2022-08-02T14:17:11.203Z,98390.59
2022-08-02T14:19:40.759Z,98392.34
2022-08-02T14:22:12.471Z,98410.38
2022-08-02T14:24:42.683Z,98405.75
2022-08-02T14:27:12.304Z,98412.63
2022-08-02T14:29:41.577Z,98398.41
2022-08-02T14:32:11.390Z,98387.31
2022-08-02T14:34:40.922Z,98383.69
2022-08-02T14:37:12.030Z,98381.75
2022-08-02T14:39:43.449Z,98374.75
2022-08-02T14:42:29.823Z,98360.25
2022-08-02T14:44:59.041Z,98354.66
2022-08-02T14:47:28.300Z,98359.22
2022-08-02T14:49:57.566Z,98354.31
2022-08-02T14:52:28.328Z,98370.06
2022-08-02T14:54:57.574Z,98369.13
2022-08-02T14:57:27.456Z,98375.59
2022-08-02T14:59:56.937Z,98376.88
2022-08-02T15:02:26.239Z,98375.22
2022-08-02T15:04:55.692Z,98369.81
2022-08-02T15:07:25.107Z,98386.63
2022-08-02T15:09:56.077Z,98383.22
2022-08-02T15:12:25.362Z,98383.72
2022-08-02T15:14:54.652Z,98387.78
2022-08-02T15:17:27.031Z,98378.47
2022-08-02T15:20:01.088Z,98379.94
2022-08-02T15:22:35.406Z,98373.28
2022-08-02T15:25:14.710Z,98393.13
2022-08-02T15:27:45.034Z,98398.75
2022-08-02T15:30:15.003Z,98398.59
2022-08-02T15:32:53.045Z,98399.13
2022-08-02T15:35:29.429Z,98386.22
2022-08-02T15:38:02.724Z,98387.19
2022-08-02T15:40:35.506Z,98391.81
2022-08-02T15:43:07.055Z,98382.56
2022-08-02T15:45:37.116Z,98371.56
2022-08-02T15:48:07.543Z,98373.53
2022-08-02T15:50:36.897Z,98378.63
2022-08-02T15:53:06.176Z,98376.53
2022-08-02T15:55:52.151Z,98376.31
2022-08-02T15:58:28.393Z,98362.19
2022-08-02T16:00:58.108Z,98357.63
2022-08-02T16:03:28.833Z,98356.50
2022-08-02T16:05:58.248Z,98363.63
2022-08-02T16:08:27.636Z,98372.72
2022-08-02T16:11:02.792Z,98383.00
2022-08-02T16:13:53.053Z,98393.00
2022-08-02T16:16:23.913Z,98386.69
2022-08-02T16:18:53.658Z,98384.00
2022-08-02T16:21:24.866Z,98403.97
2022-08-02T16:24:01.644Z,98393.13
2022-08-02T16:26:34.905Z,98394.13
2022-08-02T16:29:06.054Z,98390.59
2022-08-02T16:31:38.715Z,98396.03
2022-08-02T16:34:11.507Z,98400.88
2022-08-02T16:36:40.746Z,98408.84
2022-08-02T16:39:10.115Z,98412.59
2022-08-02T16:41:51.037Z,98405.06
2022-08-02T16:44:26.917Z,98401.50
2022-08-02T16:47:01.165Z,98405.28
2022-08-02T16:50:07.021Z,98413.22
2022-08-02T16:52:21.419Z,98417.22
2022-08-02T16:54:51.824Z,98418.16
2022-08-02T16:57:42.793Z,98417.41
2022-08-02T17:00:16.233Z,98412.72
2022-08-02T17:02:47.085Z,98408.53
2022-08-02T17:05:16.955Z,98402.22
2022-08-02T17:08:15.651Z,98407.91
2022-08-02T17:10:37.560Z,98394.94
2022-08-02T17:13:11.379Z,98400.38
2022-08-02T17:16:01.054Z,98403.38
2022-08-02T17:18:42.451Z,98406.19
2022-08-02T17:21:14.081Z,98405.03
2022-08-02T17:24:05.073Z,98406.25
2022-08-02T17:26:37.841Z,98406.38
2022-08-02T17:29:15.249Z,98413.94
2022-08-02T17:32:05.794Z,98397.56
2022-08-02T17:34:38.833Z,98395.78
2022-08-02T17:37:08.466Z,98398.41
2022-08-02T17:39:44.347Z,98405.59
2022-08-02T17:42:29.023Z,98401.84
2022-08-02T17:45:16.375Z,98402.69
2022-08-02T17:48:04.772Z,98399.97
2022-08-02T17:50:35.070Z,98393.34
2022-08-02T17:53:06.272Z,98390.44
2022-08-02T17:55:42.844Z,98402.00
2022-08-02T17:58:13.547Z,98397.09
2022-08-02T18:00:46.463Z,98389.34
2022-08-02T18:03:16.796Z,98397.47
2022-08-02T18:05:53.518Z,98391.47
2022-08-02T18:08:25.154Z,98391.66
2022-08-02T18:10:57.153Z,98389.78
2022-08-02T18:13:28.512Z,98395.47
2022-08-02T18:16:04.453Z,98400.00
2022-08-02T18:18:33.771Z,98400.16
2022-08-02T18:21:15.322Z,98391.88
2022-08-02T18:23:48.676Z,98393.66
2022-08-02T18:26:20.799Z,98402.78
2022-08-02T18:28:50.374Z,98397.16
2022-08-02T18:31:22.334Z,98396.78
2022-08-02T18:34:12.020Z,98393.63
2022-08-02T18:36:47.324Z,98396.56
2022-08-02T18:39:18.771Z,98397.84
2022-08-02T18:41:50.372Z,98393.00
2022-08-02T18:47:26.397Z,98397.34
2022-08-02T18:50:02.641Z,98403.59
2022-08-02T18:52:32.655Z,98407.44
2022-08-02T18:55:06.300Z,98405.84
2022-08-02T18:58:19.405Z,98405.41
2022-08-02T19:00:30.939Z,98405.34
2022-08-02T19:03:01.956Z,98413.78
2022-08-02T19:05:53.482Z,98410.97
2022-08-02T19:08:25.522Z,98414.28
2022-08-02T19:10:57.357Z,98416.72
2022-08-02T19:13:26.705Z,98418.41
2022-08-02T19:15:56.173Z,98423.63
2022-08-02T19:18:30.121Z,98432.31
2022-08-02T19:21:05.746Z,98435.59
2022-08-02T19:23:37.135Z,98433.50
2022-08-02T19:26:23.789Z,98440.22
2022-08-02T19:28:55.185Z,98449.91
2022-08-02T19:31:24.558Z,98446.63
2022-08-02T19:34:07.953Z,98450.59
2022-08-02T19:36:40.307Z,98447.50
2022-08-02T19:39:11.481Z,98451.56
2022-08-02T19:41:46.913Z,98451.94
2022-08-02T19:44:22.841Z,98452.94
2022-08-02T19:46:58.401Z,98452.63
2022-08-02T19:49:39.448Z,98459.06
2022-08-02T19:52:21.846Z,98452.00
2022-08-02T19:54:55.689Z,98454.22
2022-08-02T19:57:26.875Z,98444.13
2022-08-02T19:59:58.530Z,98453.28
2022-08-02T20:02:28.051Z,98444.84
2022-08-02T20:05:00.873Z,98447.06
2022-08-02T20:07:54.556Z,98442.63
2022-08-02T20:10:27.821Z,98437.00
2022-08-02T20:12:59.636Z,98439.00
2022-08-02T20:15:56.131Z,98451.69
2022-08-02T20:18:26.700Z,98446.34
2022-08-02T20:20:59.780Z,98453.47
2022-08-02T20:23:33.879Z,98455.09
2022-08-02T20:26:06.460Z,98454.88
2022-08-02T20:28:38.453Z,98448.59
2022-08-02T20:31:09.436Z,98445.19
2022-08-02T20:33:55.986Z,98445.53
2022-08-02T20:36:30.011Z,98440.47
2022-08-02T20:38:59.288Z,98439.09
2022-08-02T20:41:37.173Z,98443.06
2022-08-02T20:44:31.233Z,98445.59
2022-08-02T20:47:01.555Z,98441.19
2022-08-02T20:49:41.097Z,98442.16
2022-08-02T20:52:23.630Z,98449.13
2022-08-02T20:54:53.845Z,98433.94
2022-08-02T20:57:36.151Z,98442.16
2022-08-02T21:00:13.832Z,98439.16
2022-08-02T21:02:43.689Z,98441.22
2022-08-02T21:08:05.332Z,98439.81
2022-08-02T21:10:34.724Z,98430.59
2022-08-02T21:13:19.067Z,98439.66
2022-08-02T21:15:52.072Z,98437.41
2022-08-02T21:18:33.270Z,98444.25
2022-08-02T21:21:11.191Z,98443.16
2022-08-02T21:23:48.872Z,98437.75
2022-08-02T21:26:28.543Z,98438.25
2022-08-02T21:29:01.004Z,98433.63
2022-08-02T21:31:35.625Z,98439.16
2022-08-02T21:34:21.828Z,98439.19
2022-08-02T21:36:54.902Z,98436.34
2022-08-02T21:39:26.636Z,98437.28
2022-08-02T21:41:55.865Z,98447.72
2022-08-02T21:44:25.340Z,98446.28
2022-08-02T21:46:57.622Z,98440.91
2022-08-02T21:50:09.573Z,98437.72
2022-08-02T21:52:18.990Z,98445.66
2022-08-02T21:54:50.231Z,98443.75
2022-08-02T21:57:20.162Z,98438.84
2022-08-02T21:59:52.966Z,98440.91
2022-08-02T22:02:30.694Z,98439.34
2022-08-02T22:05:02.726Z,98448.81
2022-08-02T22:07:38.244Z,98443.88
2022-08-02T22:10:10.433Z,98450.56
2022-08-02T22:12:40.628Z,98438.03
2022-08-02T22:15:11.816Z,98438.97
2022-08-02T22:17:53.550Z,98443.09
2022-08-02T22:20:29.411Z,98438.63
2022-08-02T22:22:58.579Z,98444.31
2022-08-02T22:25:36.687Z,98441.47
2022-08-02T22:28:35.716Z,98445.31
2022-08-02T22:31:00.146Z,98450.50
2022-08-02T22:34:01.016Z,98443.97
2022-08-02T22:36:31.551Z,98445.22
2022-08-02T22:39:01.954Z,98443.25
2022-08-02T22:42:01.682Z,98444.19
2022-08-02T22:44:23.186Z,98450.47
2022-08-02T22:46:52.426Z,98451.94
2022-08-02T22:49:38.538Z,98443.06
2022-08-02T22:52:10.853Z,98453.78
2022-08-02T22:54:40.403Z,98461.16
2022-08-02T22:57:11.367Z,98447.69
2022-08-02T22:59:06.043Z,98439.00
2022-08-02T22:59:41.636Z,98452.13
2022-08-02T23:02:11.211Z,98449.06
2022-08-02T23:04:40.626Z,98447.44
2022-08-02T23:07:09.778Z,98442.03
2022-08-02T23:09:39.218Z,98451.03
2022-08-02T23:12:10.391Z,98454.44
2022-08-02T23:14:39.609Z,98450.28
2022-08-02T23:17:26.444Z,98452.13
2022-08-02T23:19:55.662Z,98449.78
2022-08-02T23:22:29.382Z,98454.44
2022-08-02T23:25:00.719Z,98449.06
2022-08-02T23:27:31.870Z,98446.09
2022-08-02T23:30:01.332Z,98452.59
2022-08-02T23:32:30.620Z,98451.34
2022-08-02T23:34:59.866Z,98450.41
2022-08-02T23:37:29.079Z,98449.72
2022-08-02T23:40:39.342Z,98448.94
2022-08-02T23:43:13.402Z,98448.09
2022-08-02T23:45:46.350Z,98448.09
2022-08-02T23:48:15.860Z,98448.03
2022-08-02T23:50:45.075Z,98441.25
2022-08-02T23:53:14.290Z,98447.88
2022-08-02T23:55:43.423Z,98446.81
2022-08-02T23:58:14.885Z,98444.25
